Flight Track Log - Related Links

Times and Time Zones

All times are in EDT time to prevent confusion due to time zone crossing. See the AAY655 flight status page for this flight to view local times or setup timezone preferences in your user account.

Time Position Orientation Groundspeed Altitude Reporting Facility
EDT Latitude Longitude Course Direction KTS MPH feet Rate Location/Type
Fri 07:34:39 PM 43.1167 -78.9667 236° Southwest 165 190 1,400  Level Buffalo TRACON
Fri 07:35:09 PM 43.1000 -79.0000 236° Southwest 164 189 2,800 1,875 Climbing Buffalo TRACON
Fri 07:35:43 PM 43.0694 -79.0106 194° South 189 217 3,400 2,000 Climbing Cleveland Center
Fri 07:36:45 PM 42.9925 -79.0192 185° South 263 303 6,000 2,468 Climbing Cleveland Center
Fri 07:37:47 PM 42.9106 -79.0308 186° South 280 322 8,500 2,129 Climbing Cleveland Center
Fri 07:38:49 PM 42.8397 -79.0706 202° Southwest 284 327 10,400 1,403 Climbing Cleveland Center
Fri 07:39:51 PM 42.7558 -79.1178 202° Southwest 328 377 11,400 1,258 Climbing Cleveland Center
Fri 07:40:53 PM 42.6586 -79.1753 204° Southwest 382 440 13,000 1,805 Climbing Cleveland Center
Fri 07:41:54 PM 42.5589 -79.2328 203° Southwest 389 448 15,100 2,390 Climbing Cleveland Center
Fri 07:42:56 PM 42.4361 -79.3042 203° Southwest 401 461 17,900 2,274 Climbing Cleveland Center
Fri 07:43:58 PM 42.3431 -79.3594 204° Southwest 404 465 19,800 1,548 Climbing Cleveland Center
Fri 07:45:00 PM 42.2381 -79.4197 203° Southwest 409 471 21,100 1,645 Climbing Cleveland Center
Fri 07:46:02 PM 42.1053 -79.4961 203° Southwest 434 499 23,200 2,274 Climbing Cleveland Center
Fri 07:47:04 PM 41.9997 -79.5561 203° Southwest 415 478 25,800 2,177 Climbing Cleveland Center
Fri 07:48:06 PM 41.8992 -79.6136 203° Southwest 401 461 27,700 1,805 Climbing Cleveland Center
Fri 07:49:07 PM 41.8036 -79.6667 202° Southwest 392 451 29,500 1,561 Climbing Cleveland Center
Fri 07:50:09 PM 41.6925 -79.7308 203° Southwest 376 433 30,900 1,161 Climbing Cleveland Center
Fri 07:51:11 PM 41.5961 -79.7853 203° Southwest 370 426 31,900 532 Climbing Cleveland Center
Fri 07:52:13 PM 41.5044 -79.8378 203° Southwest 368 423 32,000 48 Climbing Cleveland Center
Fri 07:53:15 PM 41.4114 -79.8889 202° Southwest 365 420 32,000  Level Cleveland Center
Fri 07:54:17 PM 41.3186 -79.9408 203° Southwest 364 419 32,000  Level Cleveland Center
Fri 07:55:19 PM 41.2236 -79.9928 202° Southwest 363 418 32,000  Level Cleveland Center
Fri 07:56:20 PM 41.1308 -80.0450 203° Southwest 363 418 32,000  Level Cleveland Center
Fri 07:57:22 PM 41.0175 -80.1064 202° Southwest 364 419 32,000  Level Cleveland Center
Fri 07:58:24 PM 40.9239 -80.1583 203° Southwest 364 419 32,000  Level Cleveland Center
Fri 07:59:26 PM 40.8347 -80.2072 203° Southwest 364 419 32,000  Level Cleveland Center
Fri 08:00:28 PM 40.7333 -80.2403 194° South 373 429 32,000  Level Cleveland Center
Fri 08:01:30 PM 40.6108 -80.2783 193° South 375 432 32,000  Level Cleveland Center
Fri 08:02:32 PM 40.5089 -80.3106 194° South 378 435 32,000  Level Cleveland Center
Fri 08:03:34 PM 40.4058 -80.3422 193° South 379 436 32,000  Level Cleveland Center
Fri 08:04:36 PM 40.3022 -80.3747 193° South 379 436 32,000  Level Cleveland Center
Fri 08:05:37 PM 40.2006 -80.4072 194° South 379 436 32,000  Level Cleveland Center
Fri 08:06:39 PM 40.0986 -80.4372 193° South 380 437 32,000  Level Cleveland Center
Fri 08:07:41 PM 39.9739 -80.4758 193° South 382 440 32,000  Level Cleveland Center
Fri 08:08:43 PM 39.8717 -80.5072 193° South 381 438 32,000  Level Cleveland Center
Fri 08:09:45 PM 39.7686 -80.5372 193° South 381 438 32,000  Level Cleveland Center
Fri 08:10:47 PM 39.6647 -80.5675 193° South 381 438 32,000  Level Cleveland Center
Fri 08:11:32 PM 39.5761 -80.5950 193° South 386 444 32,000  Level Indianapolis Center
Fri 08:12:33 PM 39.4717 -80.6267 193° South 386 444 32,000  Level Indianapolis Center
Fri 08:13:35 PM 39.3658 -80.6569 192° South 386 444 32,000  Level Indianapolis Center
Fri 08:14:37 PM 39.2608 -80.6872 193° South 386 444 32,000  Level Indianapolis Center
Fri 08:15:38 PM 39.1553 -80.7178 193° South 386 444 32,000  Level Indianapolis Center
Fri 08:16:40 PM 39.0514 -80.7483 193° South 386 444 32,000  Level Indianapolis Center
Fri 08:17:42 PM 38.9442 -80.7731 190° South 386 444 32,000  Level Indianapolis Center
Fri 08:18:43 PM 38.8325 -80.7772 182° South 393 452 32,000  Level Indianapolis Center
Fri 08:19:45 PM 38.7197 -80.7839 183° South 400 460 32,000  Level Indianapolis Center
Fri 08:20:47 PM 38.5839 -80.7925 183° South 400 460 32,000  Level Indianapolis Center
Fri 08:21:48 PM 38.4708 -80.7997 183° South 401 461 32,000  Level Indianapolis Center
Fri 08:22:50 PM 38.3575 -80.8069 183° South 401 461 32,000  Level Indianapolis Center
Fri 08:23:51 PM 38.2442 -80.8136 183° South 401 461 32,000  Level Indianapolis Center
Fri 08:24:53 PM 38.1308 -80.8192 182° South 402 463 32,000  Level Indianapolis Center
Fri 08:25:54 PM 38.0169 -80.8267 183° South 403 464 32,000  Level Indianapolis Center
Fri 08:26:56 PM 37.9039 -80.8319 182° South 403 464 32,000  Level Indianapolis Center
Fri 08:27:57 PM 37.7864 -80.8389 183° South 403 464 32,000  Level Indianapolis Center
Fri 08:28:59 PM 37.6767 -80.8458 183° South 403 464 32,000  Level Indianapolis Center
Fri 08:30:00 PM 37.5458 -80.8525 182° South 403 464 32,000  Level Indianapolis Center
Fri 08:31:02 PM 37.4372 -80.8589 183° South 403 464 32,000  Level Indianapolis Center
Fri 08:32:03 PM 37.3275 -80.8647 182° South 403 464 32,000  Level Indianapolis Center
Fri 08:33:05 PM 37.2194 -80.8708 183° South 403 464 32,000  Level Indianapolis Center
Fri 08:34:06 PM 37.0875 -80.8778 182° South 403 464 32,000  Level Indianapolis Center
Fri 08:35:20 PM 36.9458 -80.8858 183° South 402 463 32,000  Level Atlanta Center
Fri 08:36:20 PM 36.8439 -80.8925 183° South 402 463 32,000  Level Atlanta Center
Fri 08:37:20 PM 36.7353 -80.8942 181° South 402 463 32,000  Level Atlanta Center
Fri 08:38:20 PM 36.6189 -80.9014 183° South 402 463 32,000  Level Atlanta Center
Fri 08:39:20 PM 36.5042 -80.9083 183° South 402 463 32,000  Level Atlanta Center
Fri 08:40:20 PM 36.3897 -80.9156 183° South 408 470 32,000  Level Atlanta Center
Fri 08:41:20 PM 36.2689 -80.9228 183° South 420 483 32,000  Level Atlanta Center
Fri 08:42:20 PM 36.1503 -80.9300 183° South 426 490 32,000  Level Atlanta Center
Fri 08:43:20 PM 36.0336 -80.9344 182° South 426 490 32,000  Level Atlanta Center
Fri 08:44:20 PM 35.9150 -80.9414 183° South 426 490 32,000  Level Atlanta Center
Fri 08:45:20 PM 35.8003 -80.9483 183° South 421 484 32,000  Level Atlanta Center
Fri 08:46:20 PM 35.6817 -80.9556 183° South 421 484 32,000  Level Atlanta Center
Fri 08:47:20 PM 35.5669 -80.9597 182° South 421 484 32,000  Level Atlanta Center
Fri 08:48:20 PM 35.4522 -80.9614 181° South 421 484 32,000  Level Atlanta Center
Fri 08:49:20 PM 35.3272 -80.9661 182° South 421 484 32,000  Level Atlanta Center
Fri 08:50:20 PM 35.2125 -80.9706 182° South 416 479 32,000  Level Atlanta Center
Fri 08:52:35 PM 34.9631 -80.9775 181° South 418 481 32,000  Level Jacksonville Center
Fri 08:53:35 PM 34.8483 -80.9803 181° South 418 481 32,000  Level Jacksonville Center
Fri 08:54:35 PM 34.7336 -80.9803 180° South 423 487 32,000  Level Jacksonville Center
Fri 08:55:35 PM 34.6231 -80.9828 181° South 417 480 32,000  Level Jacksonville Center
Fri 08:56:35 PM 34.5064 -80.9878 182° South 417 480 32,000  Level Jacksonville Center
Fri 08:57:35 PM 34.3897 -80.9928 182° South 417 480 32,000 -50 Level Jacksonville Center
Fri 08:58:35 PM 34.2750 -80.9953 181° South 417 480 31,900 -50 Descending Jacksonville Center
Fri 08:59:35 PM 34.1603 -80.9953 180° South 417 480 31,900  Level Jacksonville Center
Fri 09:00:35 PM 34.0456 -80.9978 181° South 422 486 31,900  Level Jacksonville Center
Fri 09:01:35 PM 33.9286 -81.0028 182° South 422 486 31,900  Level Jacksonville Center
Fri 09:02:35 PM 33.8139 -81.0053 181° South 422 486 31,900  Level Jacksonville Center
Fri 09:03:35 PM 33.6992 -81.0078 181° South 422 486 31,900  Level Jacksonville Center
Fri 09:04:35 PM 33.5825 -81.0128 182° South 422 486 31,900  Level Jacksonville Center
Fri 09:05:35 PM 33.4656 -81.0153 181° South 422 486 31,900  Level Jacksonville Center
Fri 09:06:35 PM 33.3489 -81.0178 181° South 422 486 31,900  Level Jacksonville Center
Fri 09:07:35 PM 33.2342 -81.0225 182° South 422 486 31,900  Level Jacksonville Center
Fri 09:08:35 PM 33.1025 -81.0228 180° South 422 486 31,900  Level Jacksonville Center
Fri 09:09:35 PM 32.9858 -81.0253 181° South 422 486 31,900  Level Jacksonville Center
Fri 09:10:35 PM 32.8689 -81.0303 182° South 422 486 31,900  Level Jacksonville Center
Fri 09:11:35 PM 32.7500 -81.0328 181° South 422 486 31,900  Level Jacksonville Center
Fri 09:12:35 PM 32.6331 -81.0350 181° South 422 486 31,900  Level Jacksonville Center
Fri 09:13:35 PM 32.5161 -81.0400 182° South 422 486 31,900 50 Level Jacksonville Center
Fri 09:14:35 PM 32.4119 -81.0419 181° South 421 484 32,000 50 Climbing Jacksonville Center
Fri 09:15:35 PM 32.2825 -81.0447 181° South 431 496 32,000  Level Jacksonville Center
Fri 09:16:35 PM 32.1761 -81.0444 180° South 431 496 32,000  Level Jacksonville Center
Fri 09:17:35 PM 32.0425 -81.0469 181° South 437 503 32,000  Level Jacksonville Center
Fri 09:18:35 PM 31.9236 -81.0519 182° South 437 503 32,000  Level Jacksonville Center
Fri 09:19:35 PM 31.8172 -81.0564 182° South 437 503 32,000  Level Jacksonville Center
Fri 09:20:35 PM 31.6856 -81.0592 181° South 437 503 32,000  Level Jacksonville Center
Fri 09:21:35 PM 31.5644 -81.0614 181° South 437 503 32,000  Level Jacksonville Center
Fri 09:22:35 PM 31.4539 -81.0636 181° South 437 503 32,000 -50 Level Jacksonville Center
Fri 09:23:35 PM 31.3203 -81.0686 182° South 439 505 31,900 -550 Descending Jacksonville Center
Fri 09:24:35 PM 31.1972 -81.0736 182° South 439 505 30,900 -1,000 Descending Jacksonville Center
Fri 09:25:35 PM 31.0719 -81.0758 181° South 448 516 29,900 -1,000 Descending Jacksonville Center
Fri 09:26:35 PM 30.9508 -81.0783 181° South 448 516 28,900 -1,000 Descending Jacksonville Center
Fri 09:27:35 PM 30.8278 -81.0806 181° South 437 503 27,900 -1,000 Descending Jacksonville Center
Fri 09:28:35 PM 30.7131 -81.0853 182° South 432 497 26,900 -1,000 Descending Jacksonville Center
Fri 09:29:35 PM 30.6025 -81.0872 181° South 417 480 25,900 -1,000 Descending Jacksonville Center
Fri 09:30:35 PM 30.4939 -81.0894 181° South 407 468 24,900 -1,000 Descending Jacksonville Center
Fri 09:31:35 PM 30.3833 -81.0914 181° South 397 457 23,900 -500 Descending Jacksonville Center
Fri 09:32:35 PM 30.2789 -81.0933 181° South 392 451 23,900 -600 Level Jacksonville Center
Fri 09:33:35 PM 30.1725 -81.0953 181° South 392 451 22,700 -1,350 Descending Jacksonville Center
Fri 09:34:35 PM 30.0639 -81.0997 182° South 386 444 21,200 -1,700 Descending Jacksonville Center
Fri 09:35:35 PM 29.9594 -81.1017 181° South 386 444 19,300 -1,935 Descending Jacksonville Center
Fri 09:36:08 PM 29.9033 -81.1053 183° South 380 437 18,200 -1,900 Descending Jacksonville Center
Fri 09:36:35 PM 29.8531 -81.1036 178° South 386 444 17,400 -1,714 Descending Jacksonville Center
Fri 09:36:50 PM 29.8219 -81.1067 185° South 385 443 17,000 -2,000 Descending Jacksonville Center
Fri 09:37:35 PM 29.7489 -81.1081 181° South 386 444 15,400 -1,970 Descending Jacksonville Center
Fri 09:37:57 PM 29.7111 -81.1064 178° South 371 427 14,800 -2,000 Descending Jacksonville Center
Fri 09:38:35 PM 29.6486 -81.1097 183° South 370 426 13,400 -1,770 Descending Jacksonville Center
Fri 09:38:58 PM 29.6131 -81.1106 181° South 343 395 13,000 -1,200 Descending Jacksonville Center
Fri 09:39:35 PM 29.5569 -81.1139 183° South 353 406 12,200 -1,082 Descending Jacksonville Center
Fri 09:39:59 PM 29.5233 -81.1122 178° South 317 365 11,900 -1,000 Descending Jacksonville Center
Fri 09:40:35 PM 29.4733 -81.1083 176° South 331 381 11,200 -1,100 Descending Jacksonville Center
Fri 09:40:59 PM 29.4336 -81.1161 190° South 299 344 10,800 -1,100 Descending Jacksonville Center
Fri 09:41:35 PM 29.3900 -81.1242 189° South 315 362 10,100 -1,180 Descending Jacksonville Center
Fri 09:42:00 PM 29.3589 -81.1317 192° South 263 303 9,600 -1,600 Descending Jacksonville Center
Fri 09:42:35 PM 29.3192 -81.1325 181° South 289 333 8,500 -1,672 Descending Jacksonville Center
Fri 09:43:01 PM 29.2839 -81.1403 191° South 263 303 7,900 -1,600 Descending Jacksonville Center
Fri 09:43:35 PM 29.2442 -81.1458 187° South 278 320 6,900 -1,340 Descending Jacksonville Center
Fri 09:44:35 PM 29.1692 -81.1542 186° South 273 314 5,800 -1,000 Descending Jacksonville Center
Fri 09:45:35 PM 29.0983 -81.1625 186° South 273 314 4,900 -287 Descending Jacksonville Center
Fri 09:47:22 PM 28.9667 -81.1833 188° South 256 295 5,000 -243 Climbing Orlando TRACON
Fri 09:48:28 PM 28.9000 -81.2167 204° Southwest 243 280 4,200 -1,095 Descending Orlando TRACON
Fri 09:49:28 PM 28.8833 -81.2833 254° West 232 267 2,700 -1,238 Descending Orlando TRACON
Fri 09:50:34 PM 28.8333 -81.3333 221° Southwest 183 211 1,600 -524 Descending Orlando TRACON
Fri 09:51:34 PM 28.8000 -81.3333 180° South 141 162 1,600 -365 Level Orlando TRACON
Fri 09:52:29 PM 28.7833 -81.3000 120° Southeast 129 148 900 -764 Descending Orlando TRACON
Fri 09:54:00 PM 28.7667 -81.2333 199° South  Level FlightAware Approximate

Login

Don't have an account? Register now (free) for customized features, flight alerts, and more!